Farley, Massachusetts
Current Conditions -  °F | °C
As of 4:52 AM on Friday 19 Dec 2014 (Local Time) from KORE Reporting Station
Overcast Overcast  
Wind Chill: 25°   Ceiling: 2400
Heat Index: 32°   Visibility: 10mi
Dew Point: 23°   Wind: 8mph
Humidity: 69%   Direction: 290°WNW
Pressure: 29.89"   Gusts: NA
Location:  42.6125°N, 72.4148°W
Report Text: KORE 190952Z AUTO 29007KT 10SM OVC024 00/M05 A2989 RMK AO2 SLP127 T00001050
Loading
Personal Weather Stations






























Interactive Weather Map New forecast layout! Learn more

10-Day Weather Forecast

Advertisements
Track Severe Weather on mobile